^^
Your Local Weather - Clay, NY Station Historical Data
Daily Summary for January 21, 2017 Units:  English    Metric   Both
« Previous Day
Next Day »
Daily Weekly Monthly Yearly Custom
  High: Low: Average:
Temperature: 50.2 °F 36.1 °F 42 °F
Dew Point: 44.7 °F 34.5 °F 39.4 °F
Humidity: 95% 80% 91%
Wind Speed: 3.0mph 0.0mph 0.7mph
Wind Gust: 5.0mph - -
Wind- - East
Pressure: 29.80 in 29.66 in -
Precipitation: 0.00 in    
Historical Graphs
 
 
Tabular Data for January 21, 2017
Time Temperature Dew Point Pressure Wind Wind Speed Wind Gust Humidity Rainfall Rate (Hourly) solar
00:00 36.2 °F 34.6 °F 29.78 in Calm     94% 0.00 in 0 W/m2
00:06 36.2 °F 34.6 °F 29.78 in Calm     94% 0.00 in 0 W/m2
00:12 36.2 °F 34.6 °F 29.78 in Calm     94% 0.00 in 0 W/m2
00:18 36.3 °F 34.7 °F 29.78 in Calm     94% 0.00 in 0 W/m2
00:24 36.3 °F 34.7 °F 29.78 in Calm     94% 0.00 in 0 W/m2
00:30 36.2 °F 34.6 °F 29.78 in Calm     94% 0.00 in 0 W/m2
00:36 36.2 °F 34.6 °F 29.78 in Calm   1.0 mph 94% 0.00 in 0 W/m2
00:42 36.1 °F 34.5 °F 29.78 in Calm     94% 0.00 in 0 W/m2
00:48 36.2 °F 34.6 °F 29.78 in Calm     94% 0.00 in 0 W/m2
00:54 36.3 °F 34.7 °F 29.78 in Calm     94% 0.00 in 0 W/m2
01:00 36.4 °F 34.8 °F 29.77 in Calm     94% 0.00 in 0 W/m2
01:06 36.3 °F 34.7 °F 29.77 in Calm     94% 0.00 in 0 W/m2
01:12 36.2 °F 34.6 °F 29.77 in Calm     94% 0.00 in 0 W/m2
01:18 36.2 °F 34.6 °F 29.77 in Calm     94% 0.00 in 0 W/m2
01:24 36.3 °F 34.7 °F 29.78 in Calm     94% 0.00 in 0 W/m2
01:30 36.3 °F 34.7 °F 29.78 in Calm     94% 0.00 in 0 W/m2
01:36 36.3 °F 34.7 °F 29.78 in Calm     94% 0.00 in 0 W/m2
01:42 36.2 °F 34.6 °F 29.78 in Calm     94% 0.00 in 0 W/m2
01:48 36.2 °F 34.6 °F 29.78 in Calm   1.0 mph 94% 0.00 in 0 W/m2
01:54 36.3 °F 34.7 °F 29.78 in Calm     94% 0.00 in 0 W/m2
02:00 36.3 °F 34.7 °F 29.78 in Calm     94% 0.00 in 0 W/m2
02:06 36.4 °F 34.8 °F 29.79 in Calm     94% 0.00 in 0 W/m2
02:12 36.4 °F 34.8 °F 29.79 in Calm     94% 0.00 in 0 W/m2
02:18 36.5 °F 34.9 °F 29.79 in Calm     94% 0.00 in 0 W/m2
02:24 36.6 °F 35.0 °F 29.79 in Calm     94% 0.00 in 0 W/m2
02:30 36.5 °F 34.9 °F 29.80 in Calm     94% 0.00 in 0 W/m2
02:36 36.5 °F 34.9 °F 29.80 in Calm     94% 0.00 in 0 W/m2
02:42 36.6 °F 35.0 °F 29.80 in Calm     94% 0.00 in 0 W/m2
02:48 36.7 °F 35.1 °F 29.80 in Calm     94% 0.00 in 0 W/m2
02:54 36.6 °F 35.0 °F 29.80 in Calm     94% 0.00 in 0 W/m2
03:00 36.6 °F 35.0 °F 29.80 in Calm     94% 0.00 in 0 W/m2
03:06 36.7 °F 35.1 °F 29.80 in Calm     94% 0.00 in 0 W/m2
03:12 36.9 °F 35.3 °F 29.79 in Calm     94% 0.00 in 0 W/m2
03:18 36.9 °F 35.3 °F 29.79 in Calm     94% 0.00 in 0 W/m2
03:24 36.8 °F 35.2 °F 29.79 in Calm   1.0 mph 94% 0.00 in 0 W/m2
03:30 36.8 °F 35.2 °F 29.79 in Calm   2.0 mph 94% 0.00 in 0 W/m2
03:36 36.8 °F 35.2 °F 29.79 in Calm   2.0 mph 94% 0.00 in 0 W/m2
03:42 36.9 °F 35.3 °F 29.79 in Calm     94% 0.00 in 0 W/m2
03:48 37.0 °F 35.4 °F 29.79 in Calm     94% 0.00 in 0 W/m2
03:54 37.0 °F 35.4 °F 29.79 in Calm     94% 0.00 in 0 W/m2
04:00 37.1 °F 35.5 °F 29.79 in Calm     94% 0.00 in 0 W/m2
04:06 37.1 °F 35.5 °F 29.79 in Calm     94% 0.00 in 0 W/m2
04:12 37.1 °F 35.5 °F 29.78 in Calm     94% 0.00 in 0 W/m2
04:18 37.1 °F 35.5 °F 29.78 in Calm     94% 0.00 in 0 W/m2
04:24 37.2 °F 35.6 °F 29.79 in Calm     94% 0.00 in 0 W/m2
04:30 37.3 °F 35.7 °F 29.79 in Calm     94% 0.00 in 0 W/m2
04:36 37.3 °F 35.7 °F 29.79 in Calm     94% 0.00 in 0 W/m2
04:42 37.3 °F 35.7 °F 29.79 in Calm     94% 0.00 in 0 W/m2
04:48 37.3 °F 35.7 °F 29.79 in Calm     94% 0.00 in 0 W/m2
04:54 37.3 °F 35.7 °F 29.79 in Calm     94% 0.00 in 0 W/m2
05:00 37.2 °F 35.6 °F 29.79 in Calm     94% 0.00 in 0 W/m2
05:06 37.2 °F 35.6 °F 29.79 in Calm     94% 0.00 in 0 W/m2
05:12 37.3 °F 35.7 °F 29.79 in Calm     94% 0.00 in 0 W/m2
05:18 37.3 °F 35.7 °F 29.79 in Calm     94% 0.00 in 0 W/m2
05:24 37.4 °F 35.8 °F 29.80 in Calm     94% 0.00 in 0 W/m2
05:30 37.5 °F 35.9 °F 29.80 in Calm     94% 0.00 in 0 W/m2
05:36 37.5 °F 35.9 °F 29.80 in Calm     94% 0.00 in 0 W/m2
05:42 37.4 °F 35.8 °F 29.79 in Calm     94% 0.00 in 0 W/m2
05:48 37.3 °F 35.7 °F 29.80 in Calm   1.0 mph 94% 0.00 in 0 W/m2
05:54 37.4 °F 35.8 °F 29.80 in Calm     94% 0.00 in 0 W/m2
06:00 37.4 °F 35.8 °F 29.80 in Calm     94% 0.00 in 0 W/m2
06:06 37.4 °F 35.8 °F 29.80 in Calm     94% 0.00 in 0 W/m2
06:12 37.5 °F 35.9 °F 29.80 in Calm   1.0 mph 94% 0.00 in 0 W/m2
06:18 37.6 °F 36.0 °F 29.80 in Calm   1.0 mph 94% 0.00 in 0 W/m2
06:24 37.6 °F 36.0 °F 29.80 in Calm     94% 0.00 in 0 W/m2
06:30 37.6 °F 36.0 °F 29.80 in Calm     94% 0.00 in 0 W/m2
06:36 37.6 °F 36.0 °F 29.80 in Calm     94% 0.00 in 0 W/m2
06:42 37.7 °F 36.1 °F 29.80 in Calm     94% 0.00 in 0 W/m2
06:48 37.7 °F 36.1 °F 29.79 in Calm     94% 0.00 in 0 W/m2
06:54 37.8 °F 36.2 °F 29.79 in ENE 1.0 mph 1.0 mph 94% 0.00 in 0 W/m2
07:00 37.8 °F 36.2 °F 29.80 in SSW 1.0 mph 1.0 mph 94% 0.00 in 0 W/m2
07:06 37.9 °F 36.3 °F 29.80 in Calm   1.0 mph 94% 0.00 in 0 W/m2
07:12 37.9 °F 36.3 °F 29.80 in Calm     94% 0.00 in 0 W/m2
07:18 37.9 °F 36.3 °F 29.80 in Calm   1.0 mph 94% 0.00 in 0 W/m2
07:24 38.0 °F 36.4 °F 29.80 in Calm   2.0 mph 94% 0.00 in 0 W/m2
07:30 38.1 °F 36.5 °F 29.80 in SSW 1.0 mph 1.0 mph 94% 0.00 in 0 W/m2
07:36 38.1 °F 36.5 °F 29.80 in Calm   1.0 mph 94% 0.00 in 0 W/m2
07:42 38.2 °F 36.6 °F 29.80 in Calm     94% 0.00 in 0 W/m2
07:48 38.2 °F 36.6 °F 29.80 in Calm   1.0 mph 94% 0.00 in 0 W/m2
07:54 38.0 °F 36.4 °F 29.80 in Calm   2.0 mph 94% 0.00 in 0 W/m2
08:00 37.9 °F 36.3 °F 29.80 in Calm     94% 0.00 in 5 W/m2
08:06 37.9 °F 36.3 °F 29.80 in Calm     94% 0.00 in 7 W/m2
08:12 37.9 °F 36.3 °F 29.79 in Calm     94% 0.00 in 12 W/m2
08:18 37.9 °F 36.3 °F 29.79 in Calm     94% 0.00 in 14 W/m2
08:24 38.1 °F 36.5 °F 29.78 in Calm     94% 0.00 in 19 W/m2
08:30 38.2 °F 36.6 °F 29.78 in Calm     94% 0.00 in 21 W/m2
08:36 38.4 °F 36.8 °F 29.79 in Calm     94% 0.00 in 23 W/m2
08:42 38.6 °F 37.0 °F 29.79 in Calm   1.0 mph 94% 0.00 in 23 W/m2
08:48 38.7 °F 37.1 °F 29.80 in Calm   1.0 mph 94% 0.00 in 25 W/m2
08:54 38.8 °F 37.2 °F 29.80 in Calm     94% 0.00 in 26 W/m2
09:00 38.8 °F 37.2 °F 29.80 in Calm     94% 0.00 in 46 W/m2
09:06 38.9 °F 37.3 °F 29.80 in Calm     94% 0.00 in 65 W/m2
09:12 39.2 °F 37.9 °F 29.80 in Calm     95% 0.00 in 58 W/m2
09:18 39.5 °F 37.9 °F 29.80 in Calm     94% 0.00 in 56 W/m2
09:24 40.0 °F 38.7 °F 29.79 in Calm     95% 0.00 in 84 W/m2
09:30 40.6 °F 39.3 °F 29.80 in Calm     95% 0.00 in 118 W/m2
09:36 41.1 °F 39.8 °F 29.80 in Calm     95% 0.00 in 151 W/m2
09:42 41.7 °F 40.4 °F 29.79 in Calm     95% 0.00 in 127 W/m2
09:48 42.0 °F 40.7 °F 29.80 in Calm     95% 0.00 in 88 W/m2
09:54 42.2 °F 40.9 °F 29.80 in Calm     95% 0.00 in 70 W/m2
10:00 42.4 °F 41.1 °F 29.79 in Calm     95% 0.00 in 77 W/m2
10:06 42.6 °F 41.0 °F 29.79 in Calm     94% 0.00 in 86 W/m2
10:12 42.7 °F 41.4 °F 29.78 in Calm     95% 0.00 in 65 W/m2
10:18 42.9 °F 41.3 °F 29.79 in Calm     94% 0.00 in 88 W/m2
10:24 43.1 °F 41.5 °F 29.80 in Calm     94% 0.00 in 86 W/m2
10:30 43.4 °F 41.8 °F 29.79 in Calm     94% 0.00 in 90 W/m2
10:36 43.6 °F 42.0 °F 29.80 in Calm     94% 0.00 in 83 W/m2
10:42 44.0 °F 42.1 °F 29.79 in Calm   3.0 mph 93% 0.00 in 102 W/m2
10:48 43.9 °F 42.0 °F 29.78 in ENE 1.0 mph 3.0 mph 93% 0.00 in 137 W/m2
10:54 43.9 °F 41.7 °F 29.78 in ENE 1.0 mph 3.0 mph 92% 0.00 in 141 W/m2
11:00 43.4 °F 40.9 °F 29.78 in ENE 2.0 mph 2.0 mph 91% 0.00 in 294 W/m2
11:06 43.1 °F 40.4 °F 29.78 in North 2.0 mph 3.0 mph 90% 0.00 in 200 W/m2
11:12 43.2 °F 40.2 °F 29.77 in North 2.0 mph 3.0 mph 89% 0.00 in 167 W/m2
11:18 42.8 °F 39.8 °F 29.77 in NNW 3.0 mph 3.0 mph 89% 0.00 in 160 W/m2
11:24 42.8 °F 39.8 °F 29.77 in NNW 2.0 mph 3.0 mph 89% 0.00 in 176 W/m2
11:30 43.3 °F 40.6 °F 29.77 in NE 1.0 mph 1.0 mph 90% 0.00 in 225 W/m2
11:36 43.5 °F 40.5 °F 29.77 in ENE 1.0 mph 2.0 mph 89% 0.00 in 213 W/m2
11:42 43.8 °F 40.5 °F 29.76 in ENE 1.0 mph 1.0 mph 88% 0.00 in 207 W/m2
11:48 44.1 °F 41.1 °F 29.76 in NNE 1.0 mph 1.0 mph 89% 0.00 in 185 W/m2
11:54 44.5 °F 41.2 °F 29.75 in NE 1.0 mph 2.0 mph 88% 0.00 in 244 W/m2
12:00 44.9 °F 41.3 °F 29.75 in NE 1.0 mph 1.0 mph 87% 0.00 in 308 W/m2
12:06 45.6 °F 41.4 °F 29.75 in NE 1.0 mph 1.0 mph 85% 0.00 in 330 W/m2
12:12 46.0 °F 41.7 °F 29.75 in ENE 1.0 mph 3.0 mph 85% 0.00 in 343 W/m2
12:18 46.3 °F 42.9 °F 29.75 in ENE 1.0 mph 3.0 mph 88% 0.00 in 271 W/m2
12:24 46.8 °F 42.8 °F 29.75 in ENE 1.0 mph 2.0 mph 86% 0.00 in 396 W/m2
12:30 47.5 °F 42.9 °F 29.75 in ENE 1.0 mph 1.0 mph 84% 0.00 in 475 W/m2
12:36 47.3 °F 42.7 °F 29.74 in ENE 2.0 mph 3.0 mph 84% 0.00 in 427 W/m2
12:42 47.5 °F 43.2 °F 29.74 in NE 2.0 mph 3.0 mph 85% 0.00 in 434 W/m2
12:48 47.7 °F 43.4 °F 29.74 in NE 2.0 mph 3.0 mph 85% 0.00 in 415 W/m2
12:54 47.6 °F 43.3 °F 29.74 in East 2.0 mph 3.0 mph 85% 0.00 in 371 W/m2
13:00 48.2 °F 43.9 °F 29.74 in NNE 2.0 mph 2.0 mph 85% 0.00 in 383 W/m2
13:06 48.3 °F 43.4 °F 29.73 in East 2.0 mph 3.0 mph 83% 0.00 in 434 W/m2
13:12 48.8 °F 44.2 °F 29.74 in ENE 2.0 mph 3.0 mph 84% 0.00 in 411 W/m2
13:18 48.4 °F 43.8 °F 29.73 in ENE 2.0 mph 5.0 mph 84% 0.00 in 417 W/m2
13:24 49.3 °F 44.7 °F 29.73 in North 2.0 mph 4.0 mph 84% 0.00 in 396 W/m2
13:30 49.5 °F 44.6 °F 29.73 in NE 2.0 mph 4.0 mph 83% 0.00 in 364 W/m2
13:36 49.0 °F 43.7 °F 29.72 in North 2.0 mph 4.0 mph 82% 0.00 in 367 W/m2
13:42 49.1 °F 43.8 °F 29.72 in ENE 2.0 mph 2.0 mph 82% 0.00 in 276 W/m2
13:48 49.3 °F 44.0 °F 29.72 in ENE 2.0 mph 3.0 mph 82% 0.00 in 396 W/m2
13:54 49.9 °F 44.3 °F 29.72 in NE 2.0 mph 2.0 mph 81% 0.00 in 385 W/m2
14:00 49.1 °F 43.8 °F 29.71 in NE 2.0 mph 2.0 mph 82% 0.00 in 316 W/m2
14:06 49.5 °F 44.2 °F 29.72 in ENE 2.0 mph 3.0 mph 82% 0.00 in 292 W/m2
14:12 49.9 °F 44.3 °F 29.72 in NNW 1.0 mph 2.0 mph 81% 0.00 in 341 W/m2
14:18 49.9 °F 44.6 °F 29.72 in NNW 2.0 mph 3.0 mph 82% 0.00 in 362 W/m2
14:24 49.4 °F 43.5 °F 29.72 in East 3.0 mph 3.0 mph 80% 0.00 in 332 W/m2
14:30 49.3 °F 44.4 °F 29.72 in NE 2.0 mph 2.0 mph 83% 0.00 in 329 W/m2
14:36 49.3 °F 44.4 °F 29.72 in ENE 2.0 mph 3.0 mph 83% 0.00 in 320 W/m2
14:42 49.9 °F 44.3 °F 29.73 in North 1.0 mph 3.0 mph 81% 0.00 in 295 W/m2
14:48 49.7 °F 44.1 °F 29.73 in ENE 2.0 mph 3.0 mph 81% 0.00 in 271 W/m2
14:54 49.9 °F 44.3 °F 29.73 in NNW 1.0 mph 2.0 mph 81% 0.00 in 278 W/m2
15:00 50.2 °F 44.3 °F 29.74 in NNW 1.0 mph 1.0 mph 80% 0.00 in 181 W/m2
15:06 50.1 °F 44.2 °F 29.74 in NE 1.0 mph 1.0 mph 80% 0.00 in 95 W/m2
15:12 49.7 °F 43.8 °F 29.74 in NE 1.0 mph 2.0 mph 80% 0.00 in 91 W/m2
15:18 49.5 °F 43.9 °F 29.74 in East 1.0 mph 2.0 mph 81% 0.00 in 88 W/m2
15:26 48.8 °F 43.5 °F 29.75 in East 2.0 mph 3.0 mph 82% 0.00 in 72 W/m2
15:32 48.6 °F 43.7 °F 29.75 in ENE 2.0 mph 2.0 mph 83% 0.00 in 62 W/m2
15:38 48.5 °F 43.6 °F 29.75 in ENE 1.0 mph 2.0 mph 83% 0.00 in 49 W/m2
15:44 48.4 °F 43.5 °F 29.74 in NE 1.0 mph 3.0 mph 83% 0.00 in 46 W/m2
15:50 48.3 °F 43.7 °F 29.74 in NE 1.0 mph 2.0 mph 84% 0.00 in 40 W/m2
15:56 48.3 °F 43.7 °F 29.74 in NE 1.0 mph 2.0 mph 84% 0.00 in 37 W/m2
16:02 48.2 °F 43.6 °F 29.74 in East 1.0 mph 2.0 mph 84% 0.00 in 28 W/m2
16:08 48.0 °F 43.4 °F 29.74 in East 1.0 mph 2.0 mph 84% 0.00 in 23 W/m2
16:14 48.0 °F 43.4 °F 29.74 in East 1.0 mph 1.0 mph 84% 0.00 in 19 W/m2
16:20 47.9 °F 43.6 °F 29.74 in Calm     85% 0.00 in 18 W/m2
16:26 47.8 °F 43.5 °F 29.74 in Calm   3.0 mph 85% 0.00 in 18 W/m2
16:32 47.7 °F 43.4 °F 29.74 in ENE 1.0 mph 1.0 mph 85% 0.00 in 18 W/m2
16:38 47.5 °F 43.2 °F 29.74 in North 1.0 mph 2.0 mph 85% 0.00 in 21 W/m2
16:44 47.2 °F 42.9 °F 29.74 in ENE 1.0 mph 3.0 mph 85% 0.00 in 19 W/m2
16:50 46.9 °F 42.6 °F 29.73 in ENE 1.0 mph 1.0 mph 85% 0.00 in 7 W/m2
16:56 46.5 °F 42.5 °F 29.73 in ENE 1.0 mph 1.0 mph 86% 0.00 in 5 W/m2
17:02 46.0 °F 42.0 °F 29.73 in NNE 1.0 mph 1.0 mph 86% 0.00 in 0 W/m2
17:08 45.5 °F 41.9 °F 29.73 in NNE 1.0 mph 2.0 mph 87% 0.00 in 0 W/m2
17:13 45.2 °F 41.6 °F 29.74 in NNE 1.0 mph 1.0 mph 87% 0.00 in 0 W/m2
17:20 44.9 °F 41.6 °F 29.74 in NNE 1.0 mph 1.0 mph 88% 0.00 in 0 W/m2
17:26 44.5 °F 41.2 °F 29.74 in Calm   1.0 mph 88% 0.00 in 0 W/m2
17:32 44.2 °F 41.2 °F 29.74 in Calm     89% 0.00 in 0 W/m2
17:38 43.8 °F 40.8 °F 29.74 in Calm     89% 0.00 in 0 W/m2
17:44 43.5 °F 40.5 °F 29.73 in Calm   1.0 mph 89% 0.00 in 0 W/m2
17:50 43.4 °F 40.7 °F 29.73 in ENE 1.0 mph 1.0 mph 90% 0.00 in 0 W/m2
17:56 43.3 °F 40.6 °F 29.73 in Calm   1.0 mph 90% 0.00 in 0 W/m2
18:02 42.9 °F 40.2 °F 29.72 in NE 1.0 mph 1.0 mph 90% 0.00 in 0 W/m2
18:08 42.7 °F 40.0 °F 29.72 in ENE 1.0 mph 2.0 mph 90% 0.00 in 0 W/m2
18:14 43.2 °F 40.8 °F 29.72 in ENE 2.0 mph 4.0 mph 91% 0.00 in 0 W/m2
18:20 43.6 °F 41.1 °F 29.72 in ENE 1.0 mph 1.0 mph 91% 0.00 in 0 W/m2
18:26 43.8 °F 41.3 °F 29.72 in ENE 1.0 mph 1.0 mph 91% 0.00 in 0 W/m2
18:32 43.6 °F 40.9 °F 29.72 in ENE 1.0 mph 2.0 mph 90% 0.00 in 0 W/m2
18:38 43.9 °F 41.2 °F 29.72 in East 1.0 mph 2.0 mph 90% 0.00 in 0 W/m2
18:44 43.9 °F 41.2 °F 29.72 in ESE 1.0 mph 2.0 mph 90% 0.00 in 0 W/m2
18:50 44.0 °F 41.5 °F 29.72 in ESE 1.0 mph 2.0 mph 91% 0.00 in 0 W/m2
18:56 44.1 °F 41.6 °F 29.72 in East 1.0 mph 3.0 mph 91% 0.00 in 0 W/m2
19:02 44.1 °F 41.6 °F 29.72 in East 1.0 mph 1.0 mph 91% 0.00 in 0 W/m2
19:08 44.0 °F 41.5 °F 29.72 in Calm   1.0 mph 91% 0.00 in 0 W/m2
19:14 43.9 °F 41.2 °F 29.72 in Calm     90% 0.00 in 0 W/m2
19:20 43.8 °F 41.3 °F 29.72 in Calm   2.0 mph 91% 0.00 in 0 W/m2
19:26 43.9 °F 41.4 °F 29.72 in ESE 1.0 mph 2.0 mph 91% 0.00 in 0 W/m2
19:32 44.0 °F 41.5 °F 29.73 in ESE 1.0 mph 1.0 mph 91% 0.00 in 0 W/m2
19:38 44.1 °F 41.6 °F 29.73 in ESE 1.0 mph 2.0 mph 91% 0.00 in 0 W/m2
19:44 44.0 °F 41.5 °F 29.73 in Calm   1.0 mph 91% 0.00 in 0 W/m2
19:50 44.0 °F 41.5 °F 29.73 in East 1.0 mph 1.0 mph 91% 0.00 in 0 W/m2
19:56 43.9 °F 41.4 °F 29.73 in East 1.0 mph 2.0 mph 91% 0.00 in 0 W/m2
20:02 44.0 °F 41.5 °F 29.73 in East 1.0 mph 2.0 mph 91% 0.00 in 0 W/m2
20:08 44.0 °F 41.8 °F 29.73 in East 1.0 mph 2.0 mph 92% 0.00 in 0 W/m2
20:14 43.8 °F 41.3 °F 29.73 in East 1.0 mph 1.0 mph 91% 0.00 in 0 W/m2
20:20 43.7 °F 41.2 °F 29.72 in NNE 1.0 mph 1.0 mph 91% 0.00 in 0 W/m2
20:26 43.6 °F 41.1 °F 29.72 in NNE 1.0 mph 1.0 mph 91% 0.00 in 0 W/m2
20:32 43.0 °F 40.6 °F 29.72 in East 1.0 mph 2.0 mph 91% 0.00 in 0 W/m2
20:38 43.3 °F 41.1 °F 29.72 in ENE 2.0 mph 2.0 mph 92% 0.00 in 0 W/m2
20:44 43.6 °F 41.4 °F 29.71 in ENE 2.0 mph 5.0 mph 92% 0.00 in 0 W/m2
20:50 43.8 °F 41.6 °F 29.71 in NE 2.0 mph 2.0 mph 92% 0.00 in 0 W/m2
20:56 43.8 °F 41.6 °F 29.71 in ENE 1.0 mph 2.0 mph 92% 0.00 in 0 W/m2
21:02 44.0 °F 41.8 °F 29.71 in ENE 1.0 mph 1.0 mph 92% 0.00 in 0 W/m2
21:10 43.9 °F 41.7 °F 29.70 in East 1.0 mph 1.0 mph 92% 0.00 in 0 W/m2
21:15 43.9 °F 41.7 °F 29.71 in East 1.0 mph 1.0 mph 92% 0.00 in 0 W/m2
21:22 43.9 °F 41.7 °F 29.71 in East 1.0 mph 1.0 mph 92% 0.00 in 0 W/m2
21:28 43.8 °F 41.3 °F 29.71 in ENE 1.0 mph 3.0 mph 91% 0.00 in 0 W/m2
21:34 43.5 °F 41.0 °F 29.70 in East 1.0 mph 3.0 mph 91% 0.00 in 0 W/m2
21:40 43.3 °F 41.1 °F 29.70 in ENE 1.0 mph 1.0 mph 92% 0.00 in 0 W/m2
21:46 43.2 °F 41.0 °F 29.71 in East 1.0 mph 1.0 mph 92% 0.00 in 0 W/m2
21:52 43.3 °F 41.1 °F 29.71 in Calm   1.0 mph 92% 0.00 in 0 W/m2
21:58 43.1 °F 40.9 °F 29.72 in Calm   1.0 mph 92% 0.00 in 0 W/m2
22:04 43.2 °F 41.0 °F 29.72 in Calm   1.0 mph 92% 0.00 in 0 W/m2
22:10 43.1 °F 40.9 °F 29.72 in ESE 1.0 mph 1.0 mph 92% 0.00 in 0 W/m2
22:16 42.7 °F 40.5 °F 29.72 in East 1.0 mph 1.0 mph 92% 0.00 in 0 W/m2
22:22 42.5 °F 40.3 °F 29.71 in ENE 1.0 mph 3.0 mph 92% 0.00 in 0 W/m2
22:28 42.4 °F 40.2 °F 29.70 in ENE 1.0 mph 3.0 mph 92% 0.00 in 0 W/m2
22:34 42.6 °F 40.4 °F 29.70 in ENE 1.0 mph 2.0 mph 92% 0.00 in 0 W/m2
22:40 42.5 °F 40.3 °F 29.70 in ENE 1.0 mph 3.0 mph 92% 0.00 in 0 W/m2
22:46 42.4 °F 40.2 °F 29.69 in ENE 2.0 mph 5.0 mph 92% 0.00 in 0 W/m2
22:52 42.6 °F 40.4 °F 29.69 in ENE 2.0 mph 3.0 mph 92% 0.00 in 0 W/m2
22:58 42.8 °F 40.6 °F 29.69 in East 2.0 mph 4.0 mph 92% 0.00 in 0 W/m2
23:04 42.8 °F 40.6 °F 29.68 in ENE 2.0 mph 3.0 mph 92% 0.00 in 0 W/m2
23:10 42.8 °F 40.6 °F 29.68 in ENE 2.0 mph 2.0 mph 92% 0.00 in 0 W/m2
23:16 42.8 °F 40.6 °F 29.67 in East 2.0 mph 2.0 mph 92% 0.00 in 0 W/m2
23:22 42.7 °F 40.5 °F 29.67 in ENE 1.0 mph 1.0 mph 92% 0.00 in 0 W/m2
23:28 42.5 °F 40.3 °F 29.67 in ENE 1.0 mph 3.0 mph 92% 0.00 in 0 W/m2
23:34 42.4 °F 40.0 °F 29.67 in ENE 1.0 mph 2.0 mph 91% 0.00 in 0 W/m2
23:39 42.1 °F 39.7 °F 29.67 in Calm     91% 0.00 in 0 W/m2
23:46 42.1 °F 39.9 °F 29.67 in Calm   3.0 mph 92% 0.00 in 0 W/m2
23:52 42.2 °F 40.0 °F 29.66 in ESE 1.0 mph 2.0 mph 92% 0.00 in 0 W/m2
23:58 42.3 °F 40.1 °F 29.66 in ENE 1.0 mph 2.0 mph 92% 0.00 in 0 W/m2
Country Meadow, Clay, NY, USA
Compliments of Weather Underground - 2 mb